sensor_id;sensor_type;location;lat;lon;timestamp;temperature;humidity
13482;DHT22;6813;60.352;15.746;2024-03-23T00:54:38;3.00;99.90
13482;DHT22;6813;60.352;15.746;2024-03-23T00:57:04;2.90;99.90
13482;DHT22;6813;60.352;15.746;2024-03-23T00:59:30;2.90;99.90
13482;DHT22;6813;60.352;15.746;2024-03-23T01:01:56;2.90;99.90
13482;DHT22;6813;60.352;15.746;2024-03-23T01:04:22;2.90;99.90
13482;DHT22;6813;60.352;15.746;2024-03-23T01:06:48;2.90;99.90
13482;DHT22;6813;60.352;15.746;2024-03-23T01:09:13;2.80;99.90
13482;DHT22;6813;60.352;15.746;2024-03-23T01:11:40;2.70;99.90
13482;DHT22;6813;60.352;15.746;2024-03-23T01:14:06;2.70;99.90
13482;DHT22;6813;60.352;15.746;2024-03-23T01:16:32;2.70;99.90
13482;DHT22;6813;60.352;15.746;2024-03-23T01:18:57;2.80;99.90
13482;DHT22;6813;60.352;15.746;2024-03-23T01:21:23;3.10;99.90
13482;DHT22;6813;60.352;15.746;2024-03-23T01:23:49;3.30;99.90
13482;DHT22;6813;60.352;15.746;2024-03-23T01:26:14;3.40;99.90
13482;DHT22;6813;60.352;15.746;2024-03-23T01:28:40;3.50;99.90
13482;DHT22;6813;60.352;15.746;2024-03-23T01:31:06;3.70;99.90
13482;DHT22;6813;60.352;15.746;2024-03-23T01:33:32;3.80;99.90
13482;DHT22;6813;60.352;15.746;2024-03-23T01:35:57;3.80;99.90
13482;DHT22;6813;60.352;15.746;2024-03-23T01:38:23;3.80;99.90
13482;DHT22;6813;60.352;15.746;2024-03-23T01:40:49;3.80;99.90
13482;DHT22;6813;60.352;15.746;2024-03-23T01:43:15;3.80;99.90
13482;DHT22;6813;60.352;15.746;2024-03-23T01:45:40;3.60;99.90
13482;DHT22;6813;60.352;15.746;2024-03-23T01:48:06;3.10;99.90
13482;DHT22;6813;60.352;15.746;2024-03-23T01:50:32;2.80;99.90
13482;DHT22;6813;60.352;15.746;2024-03-23T01:53:01;2.60;99.90
13482;DHT22;6813;60.352;15.746;2024-03-23T01:55:28;2.30;99.90
13482;DHT22;6813;60.352;15.746;2024-03-23T01:57:56;2.20;99.90
13482;DHT22;6813;60.352;15.746;2024-03-23T02:00:22;2.30;99.90
13482;DHT22;6813;60.352;15.746;2024-03-23T02:02:48;2.10;99.90
13482;DHT22;6813;60.352;15.746;2024-03-23T02:05:14;2.00;99.90
13482;DHT22;6813;60.352;15.746;2024-03-23T02:07:41;1.80;99.90
13482;DHT22;6813;60.352;15.746;2024-03-23T02:10:09;1.70;99.90
13482;DHT22;6813;60.352;15.746;2024-03-23T02:12:36;1.50;99.90
13482;DHT22;6813;60.352;15.746;2024-03-23T02:15:02;1.50;99.90
13482;DHT22;6813;60.352;15.746;2024-03-23T02:17:30;1.50;99.90
13482;DHT22;6813;60.352;15.746;2024-03-23T02:19:56;1.70;99.90
13482;DHT22;6813;60.352;15.746;2024-03-23T02:22:21;1.90;99.90
13482;DHT22;6813;60.352;15.746;2024-03-23T02:24:47;2.10;99.90
13482;DHT22;6813;60.352;15.746;2024-03-23T02:27:13;2.10;99.90
13482;DHT22;6813;60.352;15.746;2024-03-23T02:29:38;1.90;99.90
13482;DHT22;6813;60.352;15.746;2024-03-23T02:32:04;1.80;99.90
13482;DHT22;6813;60.352;15.746;2024-03-23T02:34:30;1.70;99.90
13482;DHT22;6813;60.352;15.746;2024-03-23T02:36:56;1.70;99.90
13482;DHT22;6813;60.352;15.746;2024-03-23T02:39:21;1.90;99.90
13482;DHT22;6813;60.352;15.746;2024-03-23T02:41:47;2.10;99.90
13482;DHT22;6813;60.352;15.746;2024-03-23T02:44:13;2.20;99.90
13482;DHT22;6813;60.352;15.746;2024-03-23T02:46:39;2.40;99.90
13482;DHT22;6813;60.352;15.746;2024-03-23T02:49:05;2.60;99.90
13482;DHT22;6813;60.352;15.746;2024-03-23T02:51:31;2.70;99.90
13482;DHT22;6813;60.352;15.746;2024-03-23T02:53:56;2.70;99.90
13482;DHT22;6813;60.352;15.746;2024-03-23T02:56:22;2.60;99.90
13482;DHT22;6813;60.352;15.746;2024-03-23T02:58:48;2.70;99.90
13482;DHT22;6813;60.352;15.746;2024-03-23T03:01:14;2.70;99.90
13482;DHT22;6813;60.352;15.746;2024-03-23T03:03:39;2.70;99.90
13482;DHT22;6813;60.352;15.746;2024-03-23T03:06:05;2.70;99.90
13482;DHT22;6813;60.352;15.746;2024-03-23T03:08:31;2.70;99.90
13482;DHT22;6813;60.352;15.746;2024-03-23T03:10:56;2.80;99.90
13482;DHT22;6813;60.352;15.746;2024-03-23T03:13:22;2.70;99.90
13482;DHT22;6813;60.352;15.746;2024-03-23T03:15:48;2.70;99.90
13482;DHT22;6813;60.352;15.746;2024-03-23T03:18:13;2.70;99.90
13482;DHT22;6813;60.352;15.746;2024-03-23T03:20:39;2.90;99.90
13482;DHT22;6813;60.352;15.746;2024-03-23T03:23:06;2.80;99.90
13482;DHT22;6813;60.352;15.746;2024-03-23T03:25:32;2.90;99.90
13482;DHT22;6813;60.352;15.746;2024-03-23T03:27:58;3.00;99.90
13482;DHT22;6813;60.352;15.746;2024-03-23T03:30:23;3.00;99.90
13482;DHT22;6813;60.352;15.746;2024-03-23T03:32:53;3.00;99.90
13482;DHT22;6813;60.352;15.746;2024-03-23T03:35:20;2.90;99.90
13482;DHT22;6813;60.352;15.746;2024-03-23T03:37:45;2.80;99.90
13482;DHT22;6813;60.352;15.746;2024-03-23T03:40:12;2.90;99.90
13482;DHT22;6813;60.352;15.746;2024-03-23T03:42:40;2.90;99.90
13482;DHT22;6813;60.352;15.746;2024-03-23T03:45:06;2.80;99.90
13482;DHT22;6813;60.352;15.746;2024-03-23T03:47:32;2.90;99.90
13482;DHT22;6813;60.352;15.746;2024-03-23T03:49:58;2.90;99.90
13482;DHT22;6813;60.352;15.746;2024-03-23T03:52:23;2.90;99.90
13482;DHT22;6813;60.352;15.746;2024-03-23T03:54:49;2.90;99.90
13482;DHT22;6813;60.352;15.746;2024-03-23T03:57:15;3.00;99.90
13482;DHT22;6813;60.352;15.746;2024-03-23T03:59:41;3.10;99.90
13482;DHT22;6813;60.352;15.746;2024-03-23T04:02:06;3.10;99.90
13482;DHT22;6813;60.352;15.746;2024-03-23T04:04:32;3.10;99.90
13482;DHT22;6813;60.352;15.746;2024-03-23T04:07:01;3.00;99.90
13482;DHT22;6813;60.352;15.746;2024-03-23T04:09:27;2.90;99.90
13482;DHT22;6813;60.352;15.746;2024-03-23T04:11:53;3.00;99.90
13482;DHT22;6813;60.352;15.746;2024-03-23T04:14:19;3.00;99.90
13482;DHT22;6813;60.352;15.746;2024-03-23T04:16:44;3.10;99.90
13482;DHT22;6813;60.352;15.746;2024-03-23T04:19:10;3.10;99.90
13482;DHT22;6813;60.352;15.746;2024-03-23T04:21:37;2.90;99.90
13482;DHT22;6813;60.352;15.746;2024-03-23T04:24:04;2.80;99.90
13482;DHT22;6813;60.352;15.746;2024-03-23T04:26:29;2.80;99.90
13482;DHT22;6813;60.352;15.746;2024-03-23T04:28:55;2.80;99.90
13482;DHT22;6813;60.352;15.746;2024-03-23T04:31:21;2.80;99.90
13482;DHT22;6813;60.352;15.746;2024-03-23T04:33:47;2.80;99.90
13482;DHT22;6813;60.352;15.746;2024-03-23T04:36:13;2.70;99.90
13482;DHT22;6813;60.352;15.746;2024-03-23T04:38:38;2.80;99.90
13482;DHT22;6813;60.352;15.746;2024-03-23T04:41:04;2.80;99.90
13482;DHT22;6813;60.352;15.746;2024-03-23T04:43:30;2.50;99.90
13482;DHT22;6813;60.352;15.746;2024-03-23T04:45:55;2.30;99.90
13482;DHT22;6813;60.352;15.746;2024-03-23T04:48:22;1.90;99.90
13482;DHT22;6813;60.352;15.746;2024-03-23T04:50:48;1.90;99.90
13482;DHT22;6813;60.352;15.746;2024-03-23T04:53:15;1.90;99.90
13482;DHT22;6813;60.352;15.746;2024-03-23T04:55:44;1.80;99.90
13482;DHT22;6813;60.352;15.746;2024-03-23T04:58:10;1.80;99.90
13482;DHT22;6813;60.352;15.746;2024-03-23T05:00:35;1.90;99.90
13482;DHT22;6813;60.352;15.746;2024-03-23T05:03:01;2.10;99.90
13482;DHT22;6813;60.352;15.746;2024-03-23T05:05:27;2.20;99.90
13482;DHT22;6813;60.352;15.746;2024-03-23T05:07:52;2.30;99.90
13482;DHT22;6813;60.352;15.746;2024-03-23T05:10:18;2.30;99.90
13482;DHT22;6813;60.352;15.746;2024-03-23T05:12:44;2.40;99.90
13482;DHT22;6813;60.352;15.746;2024-03-23T05:15:11;2.50;99.90
13482;DHT22;6813;60.352;15.746;2024-03-23T05:17:36;2.50;99.90
13482;DHT22;6813;60.352;15.746;2024-03-23T05:20:03;2.50;99.90
13482;DHT22;6813;60.352;15.746;2024-03-23T05:22:29;2.60;99.90
13482;DHT22;6813;60.352;15.746;2024-03-23T05:24:55;2.60;99.90
13482;DHT22;6813;60.352;15.746;2024-03-23T05:27:21;2.60;99.90
13482;DHT22;6813;60.352;15.746;2024-03-23T05:29:46;2.60;99.90
13482;DHT22;6813;60.352;15.746;2024-03-23T05:32:12;2.70;99.90
13482;DHT22;6813;60.352;15.746;2024-03-23T05:34:38;2.80;99.90
13482;DHT22;6813;60.352;15.746;2024-03-23T05:37:04;2.90;99.90
13482;DHT22;6813;60.352;15.746;2024-03-23T05:39:29;2.90;99.90
13482;DHT22;6813;60.352;15.746;2024-03-23T05:41:55;3.10;99.90
13482;DHT22;6813;60.352;15.746;2024-03-23T05:44:21;3.30;99.90
13482;DHT22;6813;60.352;15.746;2024-03-23T05:46:46;3.20;99.90
13482;DHT22;6813;60.352;15.746;2024-03-23T05:49:15;3.20;99.90
13482;DHT22;6813;60.352;15.746;2024-03-23T05:51:41;3.30;99.90
13482;DHT22;6813;60.352;15.746;2024-03-23T05:54:06;3.50;99.90
13482;DHT22;6813;60.352;15.746;2024-03-23T05:56:32;3.60;99.90
13482;DHT22;6813;60.352;15.746;2024-03-23T05:58:58;3.90;99.90
13482;DHT22;6813;60.352;15.746;2024-03-23T06:01:23;4.20;99.90
13482;DHT22;6813;60.352;15.746;2024-03-23T06:03:49;4.40;99.90
13482;DHT22;6813;60.352;15.746;2024-03-23T06:06:15;4.60;99.90
13482;DHT22;6813;60.352;15.746;2024-03-23T06:08:40;4.80;99.90
13482;DHT22;6813;60.352;15.746;2024-03-23T06:11:06;5.00;99.90
13482;DHT22;6813;60.352;15.746;2024-03-23T06:13:32;5.30;99.90
13482;DHT22;6813;60.352;15.746;2024-03-23T06:15:59;5.40;99.90
13482;DHT22;6813;60.352;15.746;2024-03-23T06:18:25;5.60;99.90
13482;DHT22;6813;60.352;15.746;2024-03-23T06:20:51;5.70;99.90
13482;DHT22;6813;60.352;15.746;2024-03-23T06:23:17;5.90;99.90
13482;DHT22;6813;60.352;15.746;2024-03-23T06:25:45;6.10;99.90
13482;DHT22;6813;60.352;15.746;2024-03-23T06:28:11;6.20;99.90
13482;DHT22;6813;60.352;15.746;2024-03-23T06:30:36;6.20;99.90
13482;DHT22;6813;60.352;15.746;2024-03-23T06:33:02;6.10;99.90
13482;DHT22;6813;60.352;15.746;2024-03-23T06:35:28;6.00;99.90
13482;DHT22;6813;60.352;15.746;2024-03-23T06:37:53;5.80;99.90
13482;DHT22;6813;60.352;15.746;2024-03-23T06:40:19;5.60;99.90
13482;DHT22;6813;60.352;15.746;2024-03-23T06:42:44;5.40;99.90
13482;DHT22;6813;60.352;15.746;2024-03-23T06:45:10;5.40;99.90
13482;DHT22;6813;60.352;15.746;2024-03-23T06:47:36;5.30;99.90
13482;DHT22;6813;60.352;15.746;2024-03-23T06:50:03;5.20;99.90
13482;DHT22;6813;60.352;15.746;2024-03-23T06:52:30;5.10;99.90
13482;DHT22;6813;60.352;15.746;2024-03-23T06:54:56;4.90;99.90
13482;DHT22;6813;60.352;15.746;2024-03-23T06:57:22;4.80;99.90
13482;DHT22;6813;60.352;15.746;2024-03-23T06:59:48;4.60;99.90
13482;DHT22;6813;60.352;15.746;2024-03-23T07:02:13;4.70;99.90
13482;DHT22;6813;60.352;15.746;2024-03-23T07:04:39;4.60;99.90
13482;DHT22;6813;60.352;15.746;2024-03-23T07:07:05;4.60;99.90
13482;DHT22;6813;60.352;15.746;2024-03-23T07:09:31;4.70;99.90
13482;DHT22;6813;60.352;15.746;2024-03-23T07:11:57;4.90;99.90
13482;DHT22;6813;60.352;15.746;2024-03-23T07:14:24;4.80;99.90
13482;DHT22;6813;60.352;15.746;2024-03-23T07:16:50;4.70;99.90
13482;DHT22;6813;60.352;15.746;2024-03-23T07:19:16;4.70;99.90
13482;DHT22;6813;60.352;15.746;2024-03-23T07:21:46;4.60;99.90
13482;DHT22;6813;60.352;15.746;2024-03-23T07:24:13;4.80;99.90
13482;DHT22;6813;60.352;15.746;2024-03-23T07:26:39;4.70;99.90
13482;DHT22;6813;60.352;15.746;2024-03-23T07:29:06;4.70;99.90
13482;DHT22;6813;60.352;15.746;2024-03-23T07:31:31;4.70;99.90
13482;DHT22;6813;60.352;15.746;2024-03-23T07:33:57;4.50;99.90
13482;DHT22;6813;60.352;15.746;2024-03-23T07:36:23;4.40;99.90
13482;DHT22;6813;60.352;15.746;2024-03-23T07:38:49;4.30;99.90
13482;DHT22;6813;60.352;15.746;2024-03-23T07:41:19;4.40;99.90
13482;DHT22;6813;60.352;15.746;2024-03-23T07:43:45;4.40;99.90
13482;DHT22;6813;60.352;15.746;2024-03-23T07:46:12;4.50;99.90
13482;DHT22;6813;60.352;15.746;2024-03-23T07:48:38;4.60;99.90
13482;DHT22;6813;60.352;15.746;2024-03-23T07:51:17;4.60;99.90
13482;DHT22;6813;60.352;15.746;2024-03-23T07:53:44;4.70;99.90
13482;DHT22;6813;60.352;15.746;2024-03-23T07:56:11;4.80;99.90
13482;DHT22;6813;60.352;15.746;2024-03-23T07:58:38;4.80;99.90
13482;DHT22;6813;60.352;15.746;2024-03-23T08:01:08;4.90;99.90
13482;DHT22;6813;60.352;15.746;2024-03-23T08:03:35;4.90;99.90
13482;DHT22;6813;60.352;15.746;2024-03-23T08:06:11;4.90;99.90
13482;DHT22;6813;60.352;15.746;2024-03-23T08:08:37;4.80;99.90
13482;DHT22;6813;60.352;15.746;2024-03-23T08:11:04;5.00;99.90
13482;DHT22;6813;60.352;15.746;2024-03-23T08:13:30;4.90;99.90
13482;DHT22;6813;60.352;15.746;2024-03-23T08:16:00;4.90;99.90
13482;DHT22;6813;60.352;15.746;2024-03-23T08:18:26;4.90;99.90
13482;DHT22;6813;60.352;15.746;2024-03-23T08:21:02;4.90;99.90
13482;DHT22;6813;60.352;15.746;2024-03-23T08:23:29;5.10;99.90
13482;DHT22;6813;60.352;15.746;2024-03-23T08:25:58;5.20;99.90
13482;DHT22;6813;60.352;15.746;2024-03-23T08:28:25;5.30;99.90
13482;DHT22;6813;60.352;15.746;2024-03-23T08:30:52;5.30;99.90
13482;DHT22;6813;60.352;15.746;2024-03-23T08:33:17;5.40;99.90
13482;DHT22;6813;60.352;15.746;2024-03-23T08:35:43;5.50;99.90
13482;DHT22;6813;60.352;15.746;2024-03-23T08:38:17;5.70;99.90
13482;DHT22;6813;60.352;15.746;2024-03-23T08:40:43;5.80;99.90
13482;DHT22;6813;60.352;15.746;2024-03-23T08:43:09;5.80;99.90
13482;DHT22;6813;60.352;15.746;2024-03-23T08:45:34;5.80;99.90
13482;DHT22;6813;60.352;15.746;2024-03-23T08:48:00;5.90;99.90
13482;DHT22;6813;60.352;15.746;2024-03-23T08:50:25;5.90;99.90
13482;DHT22;6813;60.352;15.746;2024-03-23T08:52:51;6.00;99.90
13482;DHT22;6813;60.352;15.746;2024-03-23T08:55:17;6.00;99.90
13482;DHT22;6813;60.352;15.746;2024-03-23T08:57:42;6.20;99.90
13482;DHT22;6813;60.352;15.746;2024-03-23T09:00:08;6.30;99.90
13482;DHT22;6813;60.352;15.746;2024-03-23T09:02:36;6.30;99.90
13482;DHT22;6813;60.352;15.746;2024-03-23T09:05:02;6.30;99.90
13482;DHT22;6813;60.352;15.746;2024-03-23T09:07:32;6.30;99.90
13482;DHT22;6813;60.352;15.746;2024-03-23T09:09:58;6.30;99.90
13482;DHT22;6813;60.352;15.746;2024-03-23T09:12:24;6.30;99.90
13482;DHT22;6813;60.352;15.746;2024-03-23T09:14:50;6.10;99.90
13482;DHT22;6813;60.352;15.746;2024-03-23T09:17:16;6.00;99.90
13482;DHT22;6813;60.352;15.746;2024-03-23T09:19:43;6.20;99.90
13482;DHT22;6813;60.352;15.746;2024-03-23T09:22:09;6.20;99.90
13482;DHT22;6813;60.352;15.746;2024-03-23T09:24:34;6.30;99.90
13482;DHT22;6813;60.352;15.746;2024-03-23T09:27:01;6.30;99.90
13482;DHT22;6813;60.352;15.746;2024-03-23T09:29:28;6.40;99.90
13482;DHT22;6813;60.352;15.746;2024-03-23T09:31:54;6.40;99.90
13482;DHT22;6813;60.352;15.746;2024-03-23T09:34:19;6.60;99.90
13482;DHT22;6813;60.352;15.746;2024-03-23T09:36:45;6.60;99.90
13482;DHT22;6813;60.352;15.746;2024-03-23T09:39:11;6.60;99.90
13482;DHT22;6813;60.352;15.746;2024-03-23T09:41:36;6.50;99.90
13482;DHT22;6813;60.352;15.746;2024-03-23T09:44:02;6.50;99.90
13482;DHT22;6813;60.352;15.746;2024-03-23T09:46:28;6.60;99.90
13482;DHT22;6813;60.352;15.746;2024-03-23T09:48:55;6.70;99.90
13482;DHT22;6813;60.352;15.746;2024-03-23T09:51:22;6.80;99.90
13482;DHT22;6813;60.352;15.746;2024-03-23T09:53:50;6.80;99.90
13482;DHT22;6813;60.352;15.746;2024-03-23T09:56:17;7.00;99.90
13482;DHT22;6813;60.352;15.746;2024-03-23T09:58:43;7.00;99.90
13482;DHT22;6813;60.352;15.746;2024-03-23T10:01:09;7.00;99.90
13482;DHT22;6813;60.352;15.746;2024-03-23T10:03:45;7.10;99.90
13482;DHT22;6813;60.352;15.746;2024-03-23T10:06:11;7.20;99.90
13482;DHT22;6813;60.352;15.746;2024-03-23T10:08:37;7.30;99.90
13482;DHT22;6813;60.352;15.746;2024-03-23T10:11:15;7.40;99.90
13482;DHT22;6813;60.352;15.746;2024-03-23T10:13:43;7.40;99.90
13482;DHT22;6813;60.352;15.746;2024-03-23T10:16:10;7.50;99.90
13482;DHT22;6813;60.352;15.746;2024-03-23T10:18:39;7.50;99.90
13482;DHT22;6813;60.352;15.746;2024-03-23T10:23:31;7.40;99.90
13482;DHT22;6813;60.352;15.746;2024-03-23T10:26:22;7.40;99.90
13482;DHT22;6813;60.352;15.746;2024-03-23T10:28:55;7.50;99.90
13482;DHT22;6813;60.352;15.746;2024-03-23T10:31:28;7.50;99.90
13482;DHT22;6813;60.352;15.746;2024-03-23T10:33:54;7.50;99.90
13482;DHT22;6813;60.352;15.746;2024-03-23T10:36:23;7.60;99.90
13482;DHT22;6813;60.352;15.746;2024-03-23T10:38:50;7.70;99.90
13482;DHT22;6813;60.352;15.746;2024-03-23T10:41:17;7.90;99.90
13482;DHT22;6813;60.352;15.746;2024-03-23T10:43:45;8.10;99.90
13482;DHT22;6813;60.352;15.746;2024-03-23T10:46:12;8.20;99.90
13482;DHT22;6813;60.352;15.746;2024-03-23T10:48:38;8.20;99.90
13482;DHT22;6813;60.352;15.746;2024-03-23T10:51:05;8.20;99.90
13482;DHT22;6813;60.352;15.746;2024-03-23T10:53:33;8.30;99.90
13482;DHT22;6813;60.352;15.746;2024-03-23T10:56:01;8.30;99.90
13482;DHT22;6813;60.352;15.746;2024-03-23T10:58:39;8.30;99.90
13482;DHT22;6813;60.352;15.746;2024-03-23T11:01:06;8.30;99.90
13482;DHT22;6813;60.352;15.746;2024-03-23T11:03:38;8.20;99.90
13482;DHT22;6813;60.352;15.746;2024-03-23T11:06:05;8.30;99.90
13482;DHT22;6813;60.352;15.746;2024-03-23T11:08:39;8.50;99.90
13482;DHT22;6813;60.352;15.746;2024-03-23T11:11:17;8.60;99.90
13482;DHT22;6813;60.352;15.746;2024-03-23T11:13:44;8.60;99.90
13482;DHT22;6813;60.352;15.746;2024-03-23T11:16:21;8.80;99.90
13482;DHT22;6813;60.352;15.746;2024-03-23T11:18:47;9.00;99.90
13482;DHT22;6813;60.352;15.746;2024-03-23T11:21:51;9.10;99.90
13482;DHT22;6813;60.352;15.746;2024-03-23T11:24:17;9.10;99.90
13482;DHT22;6813;60.352;15.746;2024-03-23T11:26:44;9.10;99.90
13482;DHT22;6813;60.352;15.746;2024-03-23T11:29:16;9.10;99.90
13482;DHT22;6813;60.352;15.746;2024-03-23T11:31:50;9.20;99.90
13482;DHT22;6813;60.352;15.746;2024-03-23T11:34:17;9.30;99.90
13482;DHT22;6813;60.352;15.746;2024-03-23T11:36:43;9.30;99.90
13482;DHT22;6813;60.352;15.746;2024-03-23T11:39:16;9.50;99.90
13482;DHT22;6813;60.352;15.746;2024-03-23T11:44:26;9.40;99.90
13482;DHT22;6813;60.352;15.746;2024-03-23T11:46:52;9.40;99.90
13482;DHT22;6813;60.352;15.746;2024-03-23T11:49:27;9.50;99.90
13482;DHT22;6813;60.352;15.746;2024-03-23T11:51:54;9.50;99.90
13482;DHT22;6813;60.352;15.746;2024-03-23T11:54:21;9.80;99.90
13482;DHT22;6813;60.352;15.746;2024-03-23T11:57:14;9.90;99.90
13482;DHT22;6813;60.352;15.746;2024-03-23T11:59:40;10.10;99.90
13482;DHT22;6813;60.352;15.746;2024-03-23T12:02:11;10.20;99.90
13482;DHT22;6813;60.352;15.746;2024-03-23T12:04:39;10.20;99.90
13482;DHT22;6813;60.352;15.746;2024-03-23T12:09:37;10.10;99.90
13482;DHT22;6813;60.352;15.746;2024-03-23T12:12:19;10.10;99.90
13482;DHT22;6813;60.352;15.746;2024-03-23T12:14:45;10.00;99.90
13482;DHT22;6813;60.352;15.746;2024-03-23T12:17:15;9.90;99.90
13482;DHT22;6813;60.352;15.746;2024-03-23T12:19:41;9.70;99.90
13482;DHT22;6813;60.352;15.746;2024-03-23T12:22:08;9.70;99.90
13482;DHT22;6813;60.352;15.746;2024-03-23T12:24:34;9.60;99.90
13482;DHT22;6813;60.352;15.746;2024-03-23T12:27:04;9.60;99.90
13482;DHT22;6813;60.352;15.746;2024-03-23T12:29:34;9.70;99.90
13482;DHT22;6813;60.352;15.746;2024-03-23T12:32:01;9.70;99.90
13482;DHT22;6813;60.352;15.746;2024-03-23T12:34:28;9.80;99.90
13482;DHT22;6813;60.352;15.746;2024-03-23T12:36:54;9.80;99.90
13482;DHT22;6813;60.352;15.746;2024-03-23T12:39:20;9.60;99.90
13482;DHT22;6813;60.352;15.746;2024-03-23T12:41:49;9.70;99.90
13482;DHT22;6813;60.352;15.746;2024-03-23T12:44:15;9.70;99.90
13482;DHT22;6813;60.352;15.746;2024-03-23T12:46:43;9.70;99.90
13482;DHT22;6813;60.352;15.746;2024-03-23T12:49:10;9.60;99.90
13482;DHT22;6813;60.352;15.746;2024-03-23T12:51:36;9.70;99.90
13482;DHT22;6813;60.352;15.746;2024-03-23T12:54:02;9.80;99.90
13482;DHT22;6813;60.352;15.746;2024-03-23T12:56:27;9.80;99.90
13482;DHT22;6813;60.352;15.746;2024-03-23T12:58:56;9.80;99.90
13482;DHT22;6813;60.352;15.746;2024-03-23T13:01:26;9.60;99.90
13482;DHT22;6813;60.352;15.746;2024-03-23T13:03:52;9.60;99.90
13482;DHT22;6813;60.352;15.746;2024-03-23T13:06:18;9.70;99.90
13482;DHT22;6813;60.352;15.746;2024-03-23T13:08:45;9.70;99.90
13482;DHT22;6813;60.352;15.746;2024-03-23T13:11:11;9.80;99.90
13482;DHT22;6813;60.352;15.746;2024-03-23T13:13:37;9.80;99.90
13482;DHT22;6813;60.352;15.746;2024-03-23T13:16:04;9.60;99.90
13482;DHT22;6813;60.352;15.746;2024-03-23T13:18:31;9.80;99.90
13482;DHT22;6813;60.352;15.746;2024-03-23T13:20:57;9.90;99.90
13482;DHT22;6813;60.352;15.746;2024-03-23T13:23:23;9.90;99.90
13482;DHT22;6813;60.352;15.746;2024-03-23T13:25:55;9.90;99.90
13482;DHT22;6813;60.352;15.746;2024-03-23T13:28:21;9.50;99.90
13482;DHT22;6813;60.352;15.746;2024-03-23T13:30:53;9.50;99.90
13482;DHT22;6813;60.352;15.746;2024-03-23T13:33:19;9.50;99.90
13482;DHT22;6813;60.352;15.746;2024-03-23T13:35:55;9.60;99.90
13482;DHT22;6813;60.352;15.746;2024-03-23T13:38:22;9.70;99.90
13482;DHT22;6813;60.352;15.746;2024-03-23T13:43:21;9.80;99.90
13482;DHT22;6813;60.352;15.746;2024-03-23T13:45:48;9.80;99.90
13482;DHT22;6813;60.352;15.746;2024-03-23T13:48:15;9.50;99.90
13482;DHT22;6813;60.352;15.746;2024-03-23T13:50:41;9.10;99.90
13482;DHT22;6813;60.352;15.746;2024-03-23T13:53:06;9.20;99.90
13482;DHT22;6813;60.352;15.746;2024-03-23T13:55:34;9.10;99.90
13482;DHT22;6813;60.352;15.746;2024-03-23T13:57:59;9.30;99.90
13482;DHT22;6813;60.352;15.746;2024-03-23T14:00:25;9.50;99.90
13482;DHT22;6813;60.352;15.746;2024-03-23T14:02:50;9.60;99.90
13482;DHT22;6813;60.352;15.746;2024-03-23T14:05:16;9.70;99.90
13482;DHT22;6813;60.352;15.746;2024-03-23T14:07:42;9.80;99.90
13482;DHT22;6813;60.352;15.746;2024-03-23T14:10:08;9.90;99.90
13482;DHT22;6813;60.352;15.746;2024-03-23T14:12:36;9.90;99.90
13482;DHT22;6813;60.352;15.746;2024-03-23T14:15:05;9.80;99.90
13482;DHT22;6813;60.352;15.746;2024-03-23T14:17:31;9.70;99.90
13482;DHT22;6813;60.352;15.746;2024-03-23T14:19:57;9.70;99.90
13482;DHT22;6813;60.352;15.746;2024-03-23T14:22:27;9.50;99.90
13482;DHT22;6813;60.352;15.746;2024-03-23T14:24:52;9.50;99.90
13482;DHT22;6813;60.352;15.746;2024-03-23T14:27:18;9.30;99.90
13482;DHT22;6813;60.352;15.746;2024-03-23T14:29:46;8.70;99.90
13482;DHT22;6813;60.352;15.746;2024-03-23T14:32:12;8.70;99.90
13482;DHT22;6813;60.352;15.746;2024-03-23T14:34:38;8.80;99.90
13482;DHT22;6813;60.352;15.746;2024-03-23T14:37:04;8.70;99.90
13482;DHT22;6813;60.352;15.746;2024-03-23T14:39:30;8.80;99.90
13482;DHT22;6813;60.352;15.746;2024-03-23T14:41:56;8.90;99.90
13482;DHT22;6813;60.352;15.746;2024-03-23T14:44:22;8.90;99.90
13482;DHT22;6813;60.352;15.746;2024-03-23T14:46:49;8.70;99.90
13482;DHT22;6813;60.352;15.746;2024-03-23T14:49:15;8.70;99.90
13482;DHT22;6813;60.352;15.746;2024-03-23T14:51:42;8.80;99.90
13482;DHT22;6813;60.352;15.746;2024-03-23T14:54:08;9.00;99.90
13482;DHT22;6813;60.352;15.746;2024-03-23T14:56:33;9.10;99.90
13482;DHT22;6813;60.352;15.746;2024-03-23T14:59:00;9.20;99.90
13482;DHT22;6813;60.352;15.746;2024-03-23T15:01:26;9.20;99.90
13482;DHT22;6813;60.352;15.746;2024-03-23T15:03:51;9.10;99.90
13482;DHT22;6813;60.352;15.746;2024-03-23T15:06:19;8.80;99.90
13482;DHT22;6813;60.352;15.746;2024-03-23T15:08:45;7.60;99.90
13482;DHT22;6813;60.352;15.746;2024-03-23T15:11:10;7.30;99.90
13482;DHT22;6813;60.352;15.746;2024-03-23T15:13:37;7.40;99.90
13482;DHT22;6813;60.352;15.746;2024-03-23T15:16:04;7.30;99.90
13482;DHT22;6813;60.352;15.746;2024-03-23T15:18:31;7.50;99.90
13482;DHT22;6813;60.352;15.746;2024-03-23T15:21:00;7.50;99.90
13482;DHT22;6813;60.352;15.746;2024-03-23T15:23:33;7.50;99.90
13482;DHT22;6813;60.352;15.746;2024-03-23T15:26:00;7.50;99.90
13482;DHT22;6813;60.352;15.746;2024-03-23T15:28:27;7.30;99.90
13482;DHT22;6813;60.352;15.746;2024-03-23T15:31:03;7.10;99.90
13482;DHT22;6813;60.352;15.746;2024-03-23T15:33:30;7.20;99.90
13482;DHT22;6813;60.352;15.746;2024-03-23T15:35:59;7.30;99.90
13482;DHT22;6813;60.352;15.746;2024-03-23T15:38:25;7.40;99.90
13482;DHT22;6813;60.352;15.746;2024-03-23T15:40:51;7.40;99.90
13482;DHT22;6813;60.352;15.746;2024-03-23T15:43:17;7.10;99.90
13482;DHT22;6813;60.352;15.746;2024-03-23T15:45:43;6.70;99.90
13482;DHT22;6813;60.352;15.746;2024-03-23T15:48:09;6.50;99.90
13482;DHT22;6813;60.352;15.746;2024-03-23T15:50:35;6.30;99.90
13482;DHT22;6813;60.352;15.746;2024-03-23T15:53:00;6.30;99.90
13482;DHT22;6813;60.352;15.746;2024-03-23T15:55:26;6.20;99.90
13482;DHT22;6813;60.352;15.746;2024-03-23T15:57:51;6.10;99.90
13482;DHT22;6813;60.352;15.746;2024-03-23T16:00:17;6.00;99.90
13482;DHT22;6813;60.352;15.746;2024-03-23T16:02:43;6.00;99.90
13482;DHT22;6813;60.352;15.746;2024-03-23T16:05:09;6.00;99.90
13482;DHT22;6813;60.352;15.746;2024-03-23T16:07:37;6.20;99.90
13482;DHT22;6813;60.352;15.746;2024-03-23T16:10:05;6.20;99.90
13482;DHT22;6813;60.352;15.746;2024-03-23T16:12:33;6.10;99.90
13482;DHT22;6813;60.352;15.746;2024-03-23T16:14:59;5.80;99.90
13482;DHT22;6813;60.352;15.746;2024-03-23T16:17:25;5.60;99.90
13482;DHT22;6813;60.352;15.746;2024-03-23T16:19:51;5.40;99.90
13482;DHT22;6813;60.352;15.746;2024-03-23T16:22:16;5.30;99.90
13482;DHT22;6813;60.352;15.746;2024-03-23T16:24:42;5.40;99.90
13482;DHT22;6813;60.352;15.746;2024-03-23T16:27:10;5.60;99.90
13482;DHT22;6813;60.352;15.746;2024-03-23T16:29:35;5.80;99.90
13482;DHT22;6813;60.352;15.746;2024-03-23T16:32:01;6.00;99.90
13482;DHT22;6813;60.352;15.746;2024-03-23T16:34:26;6.20;99.90
13482;DHT22;6813;60.352;15.746;2024-03-23T16:36:52;6.40;99.90
13482;DHT22;6813;60.352;15.746;2024-03-23T16:39:18;6.50;99.90
13482;DHT22;6813;60.352;15.746;2024-03-23T16:41:44;6.60;99.90
13482;DHT22;6813;60.352;15.746;2024-03-23T16:44:10;6.70;99.90
13482;DHT22;6813;60.352;15.746;2024-03-23T16:46:36;6.80;99.90